Aeroporto :
LOGIN :

Iscrizione | Disclaimer

   EN    FR    IT 

 










Sommario :    VFR   VFR Marginale   IFR   IFR Intensivo   IFR Molto Intensivo
Visibilità : 
Base nubi : 
>= 8 km
>= 3000ft
5 / 8 km
1000 / 3000 ft
1500m / 5 km
500 / 1000 ft
800 / 1500m
200 / 500 ft
< 800m
< 200 ft
Simboli :   Temporali  Nebbia  Neve Forte  Precipitazioni Forti  Vento > 20 kt
SIGMETs :   Varie  Temporali  Ghiacco  Turbolenza  Onda orograficha  Ceneri Vulcaniche






- Altitudine del aeroporto : 53 ft
- Codice IATA : LBC


EDHL - Lübeck

ULTIMO METAR :
  • 081250Z 14005KT 080V180 CAVOK 20/07 Q1024

METARs OBSOLETI :
  • 081220Z 18005KT 120V240 CAVOK 19/06 Q1025
  • 081150Z 17006KT 110V240 CAVOK 19/07 Q1025
  • 081120Z 14006KT 080V210 CAVOK 19/07 Q1025
  • 081050Z 14007KT 090V200 CAVOK 18/06 Q1026
  • 081020Z 13007KT 100V180 CAVOK 17/05 Q1026
  • 080950Z 14007KT 100V180 CAVOK 16/04 Q1027

TAF TAF EDHL
Valido dal 08 a 12 ore il 08 a 21 ore UTC


081100Z 0812/0821 14007KT CAVOK
BECMG 0815/0817 26004KT



MetMap, La meteo Aeronautica in un colpo d'occhio ! - Copyright ORBIFLY Dicembre 2007 - Disclaimer

ORBIFLY MET'MAP TEAM :

Programmazione e sviluppo : Alexandra Zaïnal
Concezione : Baudouin d'Aumeries
Aiuto per la programmazione : Marc-Olivier Méhu
Supporto tecnico e logistico : Manuel Goepfert
Aiuto per la traduzione : Arnaldo La Scala

Contatto : metmap@orbifly.com




FONTI E CREDITI :

   NOAA